Flight Track Log - Related Links

Times and Time Zones

All times are in EDT time to prevent confusion due to time zone crossing. See the N569LM flight status page for this flight to view local times or setup timezone preferences in your user account.

Time Position Orientation Groundspeed Altitude Reporting Facility
EDT Latitude Longitude Course Direction KTS MPH feet Rate Location/Type
Sun 06:02:00 PM 29.5439 -98.4878 299° West 151 174 1,400  Level Houston Center
Sun 06:03:11 PM 29.5700 -98.5414 299° West 177 204 4,100 2,231 Climbing Houston Center
Sun 06:03:18 PM 29.5664 -98.5522 249° West 200 230 4,300 1,588 Climbing Houston Center
Sun 06:04:19 PM 29.5053 -98.5933 210° Southwest 279 321 5,900 1,897 Climbing Houston Center
Sun 06:05:15 PM 29.4378 -98.5978 183° South 270 311 8,000 1,932 Climbing Houston Center
Sun 06:06:17 PM 29.3567 -98.6208 194° South 281 323 9,700 1,645 Climbing Houston Center
Sun 06:07:19 PM 29.2753 -98.6308 186° South 293 337 11,400 1,694 Climbing Houston Center
Sun 06:08:21 PM 29.1908 -98.6533 193° South 294 338 13,200 1,694 Climbing Houston Center
Sun 06:09:23 PM 29.1161 -98.6969 207° Southwest 301 346 14,900 1,548 Climbing Houston Center
Sun 06:10:25 PM 29.0319 -98.7372 203° Southwest 305 351 16,400 1,452 Climbing Houston Center
Sun 06:11:27 PM 28.9547 -98.7772 204° Southwest 304 350 17,900 1,306 Climbing Houston Center
Sun 06:12:29 PM 28.8778 -98.8222 207° Southwest 310 357 19,100 1,065 Climbing Houston Center
Sun 06:13:31 PM 28.7894 -98.8622 202° Southwest 313 360 20,100 968 Climbing Houston Center
Sun 06:14:33 PM 28.7075 -98.9061 205° Southwest 323 372 21,100 871 Climbing Houston Center
Sun 06:15:35 PM 28.6308 -98.9489 206° Southwest 336 387 21,900 968 Climbing Houston Center
Sun 06:16:37 PM 28.5303 -99.0042 206° Southwest 335 386 23,100 968 Climbing Houston Center
Sun 06:17:39 PM 28.4444 -99.0475 204° Southwest 337 388 23,900 435 Climbing Houston Center
Sun 06:18:41 PM 28.3561 -99.0936 205° Southwest 347 399 24,000 48 Climbing Houston Center
Sun 06:19:43 PM 28.2625 -99.1419 204° Southwest 364 419 24,000  Level Houston Center
Sun 06:20:45 PM 28.1672 -99.1917 205° Southwest 376 433 24,000  Level Houston Center
Sun 06:21:47 PM 28.0714 -99.2411 204° Southwest 379 436 24,000  Level Houston Center
Sun 06:22:49 PM 27.9564 -99.3006 205° Southwest 379 436 24,000  Level Houston Center
Sun 06:23:51 PM 27.8594 -99.3500 204° Southwest 383 441 24,000  Level Houston Center
Sun 06:24:53 PM 27.7628 -99.4003 205° Southwest 385 443 24,000  Level Houston Center
Sun 06:25:55 PM 27.6667 -99.4492 204° Southwest 382 440 24,000  Level Houston Center
Sun 06:26:57 PM 27.5706 -99.4992 205° Southwest 383 441 24,000  Level Houston Center
Sun 06:27:59 PM 27.4553 -99.5572 204° Southwest 381 438 24,000  Level Houston Center
Sun 06:29:00 PM 27.3717 -99.5811 196° South  Level FlightAware Approximate
Sun 06:36:00 PM 26.8070 -99.7644 197° South  Level FlightAware Approximate
Sun 06:37:00 PM 26.7262 -99.7903 196° South  Level FlightAware Approximate
Sun 06:38:00 PM 26.6455 -99.8162 196° South  Level FlightAware Approximate
Sun 06:39:00 PM 26.5648 -99.8421 196° South  Level FlightAware Approximate
Sun 06:40:00 PM 26.4840 -99.8679 196° South  Level FlightAware Approximate
Sun 06:41:00 PM 26.4033 -99.8936 196° South  Level FlightAware Approximate
Sun 06:42:00 PM 26.3222 -99.9183 195° South  Level FlightAware Approximate
Sun 06:43:00 PM 26.2411 -99.9427 195° South  Level FlightAware Approximate
Sun 06:44:00 PM 26.1605 -99.9688 197° South  Level FlightAware Approximate
Sun 06:45:00 PM 26.0800 -99.9956 197° South  Level FlightAware Approximate
Sun 06:46:00 PM 25.9994 -100.0218 195° South  Level FlightAware Approximate
Sun 06:47:00 PM 25.9184 -100.0462 195° South  Level FlightAware Approximate
Sun 06:48:00 PM 25.8380 -100.0727 204° Southwest  Level FlightAware Approximate
Sun 06:49:00 PM 25.7721 -100.1072 310° West  Level FlightAware Approximate
Sun 06:50:00 PM 25.8246 -100.1799 304° West  Level FlightAware Approximate
Sun 06:51:00 PM 25.8656 -100.2372 304° West  Level Estimated
Sun 06:52:00 PM 25.8656 -100.2372 304° West  Level Estimated
Sun 06:53:00 PM 25.8656 -100.2372 304° West  Level Estimated
Sun 06:54:00 PM 25.8656 -100.2372 304° West  Level Estimated
Sun 06:55:00 PM 25.8656 -100.2372 304° West  Level Estimated
Sun 06:56:00 PM 25.8656 -100.2372 304° West  Level Estimated
Sun 06:57:00 PM 25.8656 -100.2372 304° West  Level Estimated
Sun 06:58:00 PM 25.8656 -100.2372 304° West  Level Estimated
Sun 06:59:00 PM 25.8656 -100.2372 304° West  Level Estimated
Sun 07:00:00 PM 25.8656 -100.2372 304° West  Level Estimated
Sun 07:01:00 PM 25.8656 -100.2372 304° West  Level Estimated
Sun 07:02:00 PM 25.8656 -100.2372 304° West  Level Estimated
Sun 07:03:00 PM 25.8656 -100.2372 304° West  Level Estimated
Sun 07:04:00 PM 25.8656 -100.2372 304° West  Level Estimated
Sun 07:05:00 PM 25.8656 -100.2372 304° West  Level Estimated
Sun 07:06:00 PM 25.8656 -100.2372 304° West  Level Estimated
Sun 07:07:00 PM 25.8656 -100.2372 304° West  Level Estimated

Login

Don't have an account? Register now (free) for customized features, flight alerts, and more!